createdAt,value
2017-10-09T00:00:02.829Z,5.9
2017-10-09T00:05:02.962Z,5.8
2017-10-09T00:10:02.740Z,5.8
2017-10-09T00:15:03.396Z,5.8
2017-10-09T00:20:02.789Z,5.9
2017-10-09T00:25:03.461Z,5.9
2017-10-09T00:30:03.223Z,6.0
2017-10-09T00:35:02.810Z,5.8
2017-10-09T00:40:02.556Z,5.8
2017-10-09T00:45:03.108Z,5.8
2017-10-09T00:50:02.629Z,5.8
2017-10-09T00:55:03.259Z,5.5
2017-10-09T01:00:02.749Z,5.5
2017-10-09T01:05:03.426Z,5.5
2017-10-09T01:10:02.819Z,5.4
2017-10-09T01:15:02.456Z,5.4
2017-10-09T01:20:03.001Z,5.5
2017-10-09T01:25:04.012Z,5.5
2017-10-09T01:30:03.467Z,5.8
2017-10-09T01:35:03.132Z,5.5
2017-10-09T01:40:02.880Z,5.8
2017-10-09T01:45:02.561Z,5.5
2017-10-09T01:50:03.204Z,5.5
2017-10-09T01:55:02.778Z,5.5
2017-10-09T02:00:02.464Z,5.5
2017-10-09T02:05:03.212Z,5.5
2017-10-09T02:10:02.654Z,5.5
2017-10-09T02:15:03.218Z,5.5
2017-10-09T02:20:02.698Z,6.0
2017-10-09T02:25:03.211Z,6.4
2017-10-09T02:30:02.731Z,6.4
2017-10-09T02:35:02.429Z,6.5
2017-10-09T02:40:03.011Z,6.5
2017-10-09T02:45:02.861Z,6.6
2017-10-09T02:50:02.577Z,6.6
2017-10-09T02:55:03.307Z,6.5
2017-10-09T03:00:02.722Z,6.6
2017-10-09T03:05:03.365Z,6.6
2017-10-09T03:10:02.720Z,6.6
2017-10-09T03:15:03.178Z,6.9
2017-10-09T03:20:02.732Z,7.0
2017-10-09T03:25:03.354Z,7.0
2017-10-09T03:30:02.772Z,6.9
2017-10-09T03:35:02.471Z,6.9
2017-10-09T03:40:03.194Z,6.9
2017-10-09T03:45:02.608Z,7.0
2017-10-09T03:50:03.260Z,7.1
2017-10-09T03:55:02.564Z,7.5
2017-10-09T04:00:03.216Z,7.6
2017-10-09T04:05:02.599Z,7.5
2017-10-09T04:10:03.492Z,7.5
2017-10-09T04:15:02.801Z,7.6
2017-10-09T04:20:02.450Z,7.5
2017-10-09T04:25:03.298Z,7.5
2017-10-09T04:30:03.384Z,7.6
2017-10-09T04:35:02.871Z,7.6
2017-10-09T04:40:02.577Z,7.9
2017-10-09T04:45:03.428Z,7.6
2017-10-09T04:50:02.974Z,8.0
2017-10-09T04:55:02.601Z,8.1
2017-10-09T05:00:03.086Z,8.0
2017-10-09T05:05:02.599Z,7.9
2017-10-09T05:10:03.200Z,8.1
2017-10-09T05:15:02.884Z,8.3
2017-10-09T05:20:02.607Z,8.5
2017-10-09T05:25:03.278Z,8.5
2017-10-09T05:30:02.686Z,8.5
2017-10-09T05:35:03.377Z,8.5
2017-10-09T05:40:02.901Z,8.8
2017-10-09T05:45:02.431Z,8.8
2017-10-09T05:50:02.984Z,8.8
2017-10-09T05:55:02.848Z,8.8
2017-10-09T06:00:03.492Z,8.8
2017-10-09T06:05:03.222Z,8.8
2017-10-09T06:10:02.688Z,9.0
2017-10-09T06:15:03.680Z,9.0
2017-10-09T06:20:03.297Z,9.0
2017-10-09T06:25:02.791Z,9.1
2017-10-09T06:30:03.541Z,9.1
2017-10-09T06:35:02.925Z,9.1
2017-10-09T06:40:02.705Z,9.3
2017-10-09T06:45:03.337Z,9.3
2017-10-09T06:50:02.920Z,9.1
2017-10-09T06:55:02.593Z,9.1
2017-10-09T07:00:03.055Z,9.1
2017-10-09T07:05:02.458Z,9.1
2017-10-09T07:10:02.957Z,9.1
2017-10-09T07:15:03.471Z,9.3
2017-10-09T07:20:02.947Z,9.5
2017-10-09T07:25:02.840Z,9.6
2017-10-09T07:30:02.597Z,9.8
2017-10-09T07:35:03.196Z,10.0
2017-10-09T07:40:02.800Z,10.1
2017-10-09T07:45:02.443Z,10.1
2017-10-09T07:50:03.072Z,10.1
2017-10-09T07:55:02.609Z,10.5
2017-10-09T08:00:03.097Z,10.3
2017-10-09T08:05:02.417Z,10.5
2017-10-09T08:10:03.119Z,10.5
2017-10-09T08:15:02.594Z,10.6
2017-10-09T08:20:03.345Z,10.6
2017-10-09T08:25:02.831Z,10.6
2017-10-09T08:30:02.504Z,10.6
2017-10-09T08:35:02.993Z,10.8
2017-10-09T08:40:02.742Z,10.6
2017-10-09T08:45:03.302Z,10.8
2017-10-09T08:50:02.742Z,10.8
2017-10-09T08:55:03.426Z,11.0
2017-10-09T09:00:02.748Z,11.0
2017-10-09T09:05:03.504Z,11.1
2017-10-09T09:10:02.962Z,11.3
2017-10-09T09:15:02.664Z,11.3
2017-10-09T09:20:03.335Z,11.3
2017-10-09T09:25:02.705Z,11.3
2017-10-09T09:30:03.412Z,11.3
2017-10-09T09:35:02.799Z,11.6
2017-10-09T09:40:02.421Z,11.6
2017-10-09T09:45:03.101Z,11.6
2017-10-09T09:50:02.664Z,11.6
2017-10-09T09:55:03.242Z,11.8
2017-10-09T10:00:02.805Z,12.0
2017-10-09T10:05:02.541Z,12.3
2017-10-09T10:10:03.136Z,12.3
2017-10-09T10:15:02.871Z,12.3
2017-10-09T10:20:02.586Z,12.8
2017-10-09T10:25:03.318Z,12.8
2017-10-09T10:30:02.828Z,13.1
2017-10-09T10:35:02.532Z,13.3
2017-10-09T10:40:03.294Z,13.3
2017-10-09T10:45:02.744Z,13.3
2017-10-09T10:50:02.465Z,13.3
2017-10-09T10:55:03.088Z,13.5
2017-10-09T11:00:02.509Z,13.5
2017-10-09T11:05:03.218Z,13.3
2017-10-09T11:10:02.631Z,13.3
2017-10-09T11:15:03.225Z,13.1
2017-10-09T11:20:02.705Z,13.1
2017-10-09T11:25:03.408Z,13.1
2017-10-09T11:30:02.816Z,13.1
2017-10-09T11:35:02.480Z,13.6
2017-10-09T11:40:04.448Z,13.6
2017-10-09T11:45:03.124Z,13.6
2017-10-09T11:50:02.674Z,14.0
2017-10-09T11:55:03.246Z,13.6
2017-10-09T12:00:02.899Z,14.0
2017-10-09T12:05:02.451Z,13.6
2017-10-09T12:10:03.104Z,13.6
2017-10-09T12:15:02.685Z,14.1
2017-10-09T12:20:03.453Z,14.0
2017-10-09T12:25:03.011Z,14.0
2017-10-09T12:30:02.855Z,14.0
2017-10-09T12:35:02.566Z,13.8
2017-10-09T12:40:03.386Z,13.6
2017-10-09T12:45:03.047Z,13.6
2017-10-09T12:50:02.656Z,13.5
2017-10-09T12:55:03.117Z,13.5
2017-10-09T13:00:02.740Z,13.6
2017-10-09T13:05:03.292Z,13.8
2017-10-09T13:10:02.951Z,13.8
2017-10-09T13:15:02.710Z,13.8
2017-10-09T13:20:02.399Z,14.0
2017-10-09T13:25:03.125Z,14.3
2017-10-09T13:30:02.847Z,14.1
2017-10-09T13:35:02.612Z,14.0
2017-10-09T13:40:03.363Z,13.8
2017-10-09T13:45:02.891Z,14.0
2017-10-09T13:50:02.610Z,13.8
2017-10-09T13:55:03.313Z,14.0
2017-10-09T14:00:02.652Z,14.0
2017-10-09T14:05:04.492Z,14.1
2017-10-09T14:10:02.963Z,14.0
2017-10-09T14:15:02.444Z,14.0
2017-10-09T14:20:03.162Z,13.8
2017-10-09T14:25:02.733Z,13.8
2017-10-09T14:30:02.560Z,13.8
2017-10-09T14:40:02.945Z,13.8
2017-10-09T14:45:02.595Z,13.8
2017-10-09T14:50:03.324Z,13.8
2017-10-09T14:55:03.061Z,13.8
2017-10-09T15:00:02.900Z,14.0
2017-10-09T15:05:02.659Z,14.0
2017-10-09T15:10:03.386Z,13.6
2017-10-09T15:15:02.804Z,13.1
2017-10-09T15:20:02.522Z,13.1
2017-10-09T15:25:03.135Z,12.8
2017-10-09T15:30:02.908Z,13.1
2017-10-09T15:35:02.717Z,13.1
2017-10-09T15:40:02.573Z,12.8
2017-10-09T15:45:03.188Z,12.1
2017-10-09T15:50:02.681Z,12.0
2017-10-09T15:55:03.366Z,12.0
2017-10-09T16:00:02.801Z,12.0
2017-10-09T16:05:02.395Z,11.8
2017-10-09T16:10:04.595Z,12.0
2017-10-09T16:15:03.252Z,11.8
2017-10-09T16:20:02.820Z,11.8
2017-10-09T16:25:02.556Z,11.8
2017-10-09T16:30:03.257Z,11.8
2017-10-09T16:35:03.002Z,11.6
2017-10-09T16:40:02.807Z,11.6
2017-10-09T16:45:03.481Z,11.6
2017-10-09T16:50:03.178Z,11.6
2017-10-09T16:55:02.883Z,11.3
2017-10-09T17:00:04.813Z,11.3
2017-10-09T17:05:03.410Z,11.3
2017-10-09T17:10:03.223Z,11.3
2017-10-09T17:15:02.768Z,11.3
2017-10-09T17:20:02.694Z,11.3
2017-10-09T17:25:03.314Z,11.3
2017-10-09T17:30:02.776Z,11.3
2017-10-09T17:35:02.564Z,11.3
2017-10-09T17:40:03.354Z,11.3
2017-10-09T17:45:02.888Z,11.3
2017-10-09T17:50:02.620Z,11.3
2017-10-09T17:55:03.184Z,11.3
2017-10-09T18:00:02.648Z,11.6
2017-10-09T18:05:03.307Z,11.6
2017-10-09T18:10:02.832Z,11.6
2017-10-09T18:15:02.665Z,11.6
2017-10-09T18:20:03.262Z,11.6
2017-10-09T18:25:02.843Z,11.6
2017-10-09T18:30:02.400Z,11.6
2017-10-09T18:35:02.999Z,11.6
2017-10-09T18:40:02.979Z,11.6
2017-10-09T18:45:04.185Z,11.6
2017-10-09T18:50:02.866Z,11.6
2017-10-09T18:55:02.774Z,11.6
2017-10-09T19:00:04.844Z,11.6
2017-10-09T19:05:03.385Z,11.6
2017-10-09T19:10:04.514Z,11.6
2017-10-09T19:15:03.009Z,11.6
2017-10-09T19:20:02.633Z,11.6
2017-10-09T19:25:03.238Z,11.6
2017-10-09T19:30:02.706Z,11.6
2017-10-09T19:35:03.519Z,11.6
2017-10-09T19:40:03.319Z,11.6
2017-10-09T19:45:02.863Z,11.6
2017-10-09T19:50:02.423Z,11.6
2017-10-09T19:55:03.206Z,11.6
2017-10-09T20:00:03.498Z,11.6
2017-10-09T20:05:03.335Z,11.6
2017-10-09T20:10:02.956Z,11.3
2017-10-09T20:15:02.552Z,11.6
2017-10-09T20:20:03.170Z,11.3
2017-10-09T20:25:02.726Z,11.3
2017-10-09T20:30:03.487Z,11.3
2017-10-09T20:35:03.372Z,11.3
2017-10-09T20:40:02.797Z,11.3
2017-10-09T20:45:02.326Z,11.3
2017-10-09T20:50:03.038Z,11.6
2017-10-09T20:55:02.693Z,11.6
2017-10-09T21:00:03.562Z,11.3
2017-10-09T21:05:03.344Z,11.6
2017-10-09T21:10:02.963Z,11.3
2017-10-09T21:15:02.628Z,11.6
2017-10-09T21:20:03.288Z,11.3
2017-10-09T21:25:02.859Z,11.6
2017-10-09T21:30:02.420Z,11.6
2017-10-09T21:35:02.991Z,11.6
2017-10-09T21:40:02.751Z,11.6
2017-10-09T21:45:03.271Z,11.3
2017-10-09T21:50:02.759Z,11.6
2017-10-09T21:55:03.451Z,11.6
2017-10-09T22:00:03.018Z,11.6
2017-10-09T22:05:02.514Z,11.6
2017-10-09T22:10:03.238Z,11.6
2017-10-09T22:15:02.671Z,11.6
2017-10-09T22:20:03.178Z,11.6
2017-10-09T22:25:02.790Z,11.6
2017-10-09T22:30:02.586Z,11.6
2017-10-09T22:35:03.133Z,11.6
2017-10-09T22:40:02.567Z,11.6
2017-10-09T22:45:03.286Z,11.6
2017-10-09T22:50:02.847Z,11.6
2017-10-09T22:55:02.464Z,11.6
2017-10-09T23:00:03.787Z,11.6
2017-10-09T23:05:02.868Z,11.6
2017-10-09T23:10:02.482Z,11.6
2017-10-09T23:15:03.127Z,11.6
2017-10-09T23:20:02.849Z,11.6
2017-10-09T23:25:02.388Z,11.6
2017-10-09T23:30:02.946Z,11.6
2017-10-09T23:35:02.680Z,11.6
2017-10-09T23:40:03.216Z,11.6
2017-10-09T23:45:02.675Z,11.6
2017-10-09T23:50:03.380Z,11.6
2017-10-09T23:55:02.877Z,11.6
